Terminal Aerodrome Forecast
Issued by NWS

Home | Current Version | Previous Version | Text Only | Print | Product List | Glossary On
Versions: 1 2 3 4 5 6 7 8 9 10 11 12 13
000
FTAK31 PAFA 030526
TAFABT
TAF
PABT 030526Z 0306/0406 35004KT P6SM FEW035 SCT090 BKN120
     FM032200 35004KT P6SM VCTS SCT050CB BKN100
     FM040500 35004KT P6SM VCSH SCT050 BKN100=

USA.gov is the U.S. government's official web portal to all federal, state and local government web resources and services.